createdAt,value
2018-12-12T00:02:16.683Z,6.77
2018-12-12T00:04:55.729Z,7.30
2018-12-12T00:07:33.684Z,6.27
2018-12-12T00:10:15.875Z,6.57
2018-12-12T00:12:55.432Z,6.13
2018-12-12T00:15:33.188Z,5.87
2018-12-12T00:18:10.847Z,6.40
2018-12-12T00:20:48.402Z,5.67
2018-12-12T00:23:26.283Z,5.50
2018-12-12T00:26:04.033Z,5.97
2018-12-12T00:28:41.345Z,5.50
2018-12-12T00:31:19.079Z,6.10
2018-12-12T00:33:56.649Z,5.40
2018-12-12T00:36:34.199Z,5.07
2018-12-12T00:39:11.481Z,6.03
2018-12-12T00:41:51.203Z,5.07
2018-12-12T00:44:28.694Z,5.33
2018-12-12T00:47:06.601Z,5.17
2018-12-12T00:49:44.505Z,5.67
2018-12-12T00:52:22.093Z,4.70
2018-12-12T00:54:59.858Z,4.60
2018-12-12T00:57:37.806Z,5.10
2018-12-12T01:00:15.283Z,4.23
2018-12-12T01:02:52.663Z,4.40
2018-12-12T01:05:29.974Z,4.30
2018-12-12T01:08:07.295Z,3.80
2018-12-12T01:10:44.953Z,3.60
2018-12-12T01:13:22.905Z,3.90
2018-12-12T01:16:00.363Z,3.70
2018-12-12T01:18:37.694Z,5.20
2018-12-12T01:21:15.041Z,3.40
2018-12-12T01:23:52.439Z,3.13
2018-12-12T01:26:30.114Z,3.40
2018-12-12T01:29:08.096Z,3.77
2018-12-12T01:31:45.910Z,3.83
2018-12-12T01:34:23.393Z,4.20
2018-12-12T01:37:01.245Z,4.80
2018-12-12T01:39:39.471Z,4.27
2018-12-12T01:42:16.728Z,3.93
2018-12-12T01:44:53.927Z,3.90
2018-12-12T01:47:31.190Z,4.40
2018-12-12T01:50:08.955Z,4.83
2018-12-12T01:52:46.661Z,4.40
2018-12-12T01:55:23.987Z,4.23
2018-12-12T01:58:01.455Z,4.13
2018-12-12T02:00:39.155Z,4.93
2018-12-12T02:03:16.539Z,4.83
2018-12-12T02:05:53.989Z,4.63
2018-12-12T02:08:31.229Z,5.27
2018-12-12T02:11:08.499Z,4.87
2018-12-12T02:13:45.994Z,5.27
2018-12-12T02:16:23.911Z,5.10
2018-12-12T02:19:01.686Z,5.23
2018-12-12T02:21:39.363Z,5.30
2018-12-12T02:24:16.802Z,5.60
2018-12-12T02:26:54.091Z,7.73
2018-12-12T02:29:31.332Z,5.53
2018-12-12T02:32:08.890Z,5.83
2018-12-12T02:34:47.561Z,6.37
2018-12-12T02:37:24.694Z,5.83
2018-12-12T02:40:01.920Z,5.47
2018-12-12T02:42:40.261Z,5.50
2018-12-12T02:45:17.414Z,5.83
2018-12-12T02:47:56.065Z,5.57
2018-12-12T02:50:33.329Z,5.90
2018-12-12T02:53:11.075Z,5.90
2018-12-12T02:55:48.403Z,5.27
2018-12-12T02:58:25.858Z,6.43
2018-12-12T03:01:04.151Z,7.00
2018-12-12T03:03:41.447Z,7.93
2018-12-12T03:06:18.821Z,5.83
2018-12-12T03:08:57.464Z,6.13
2018-12-12T03:11:36.580Z,5.60
2018-12-12T03:14:13.991Z,7.27
2018-12-12T03:16:51.834Z,6.37
2018-12-12T03:19:29.699Z,6.80
2018-12-12T03:22:06.979Z,7.00
2018-12-12T03:24:44.233Z,7.53
2018-12-12T03:27:21.811Z,8.03
2018-12-12T03:29:59.105Z,6.57
2018-12-12T03:32:38.409Z,6.77
2018-12-12T03:35:15.723Z,7.17
2018-12-12T03:37:53.087Z,7.40
2018-12-12T03:40:31.198Z,6.80
2018-12-12T03:43:08.931Z,8.83
2018-12-12T03:45:46.353Z,7.57
2018-12-12T03:48:23.780Z,7.50
2018-12-12T03:51:01.153Z,7.70
2018-12-12T03:53:38.646Z,7.80
2018-12-12T03:56:16.141Z,10.23
2018-12-12T03:58:53.614Z,9.33
2018-12-12T04:01:32.407Z,9.40
2018-12-12T04:04:09.673Z,9.10
2018-12-12T04:06:47.773Z,6.73
2018-12-12T04:09:24.925Z,7.53
2018-12-12T04:12:02.221Z,6.90
2018-12-12T04:14:40.708Z,6.87
2018-12-12T04:17:17.960Z,7.07
2018-12-12T04:19:56.748Z,6.80
2018-12-12T04:22:34.469Z,7.23
2018-12-12T04:25:12.242Z,6.60
2018-12-12T04:27:49.496Z,6.23
2018-12-12T04:30:27.244Z,7.83
2018-12-12T04:33:04.474Z,6.83
2018-12-12T04:35:41.693Z,7.27
2018-12-12T04:38:19.030Z,7.33
2018-12-12T04:40:56.264Z,8.17
2018-12-12T04:43:33.526Z,6.37
2018-12-12T04:46:10.940Z,6.83
2018-12-12T04:48:49.853Z,6.63
2018-12-12T04:51:27.110Z,6.70
2018-12-12T04:54:05.431Z,6.87
2018-12-12T04:56:44.917Z,6.67
2018-12-12T04:59:23.503Z,7.37
2018-12-12T05:02:00.840Z,7.13
2018-12-12T05:04:39.196Z,6.57
2018-12-12T05:07:16.485Z,6.97
2018-12-12T05:09:53.896Z,7.57
2018-12-12T05:12:31.119Z,6.33
2018-12-12T05:15:09.018Z,6.60
2018-12-12T05:17:46.623Z,5.93
2018-12-12T05:20:23.950Z,6.07
2018-12-12T05:23:01.480Z,5.30
2018-12-12T05:25:39.232Z,5.73
2018-12-12T05:28:16.490Z,5.17
2018-12-12T05:30:54.015Z,4.57
2018-12-12T05:33:31.714Z,4.10
2018-12-12T05:36:09.402Z,4.00
2018-12-12T05:38:47.223Z,3.80
2018-12-12T05:41:24.607Z,4.50
2018-12-12T05:44:01.926Z,3.90
2018-12-12T05:46:42.013Z,3.67
2018-12-12T05:49:20.620Z,3.87
2018-12-12T05:51:58.592Z,3.57
2018-12-12T05:54:36.134Z,3.07
2018-12-12T05:57:13.720Z,3.20
2018-12-12T05:59:51.248Z,2.87
2018-12-12T06:02:29.798Z,3.20
2018-12-12T06:05:07.672Z,2.37
2018-12-12T06:07:45.039Z,2.60
2018-12-12T06:10:23.598Z,2.67
2018-12-12T06:13:02.506Z,3.13
2018-12-12T06:15:40.213Z,3.30
2018-12-12T06:18:17.805Z,3.83
2018-12-12T06:20:55.271Z,3.50
2018-12-12T06:23:32.789Z,3.43
2018-12-12T06:26:10.488Z,3.60
2018-12-12T06:28:47.947Z,3.20
2018-12-12T06:31:25.562Z,3.73
2018-12-12T06:34:02.981Z,4.00
2018-12-12T06:36:40.630Z,4.20
2018-12-12T06:39:18.191Z,5.70
2018-12-12T06:41:55.849Z,5.37
2018-12-12T06:44:33.511Z,5.50
2018-12-12T06:47:11.085Z,6.30
2018-12-12T06:49:48.527Z,5.23
2018-12-12T06:52:26.187Z,5.20
2018-12-12T06:55:04.151Z,5.60
2018-12-12T06:57:42.248Z,6.17
2018-12-12T07:00:19.577Z,5.80
2018-12-12T07:02:57.996Z,5.03
2018-12-12T07:05:35.412Z,5.10
2018-12-12T07:08:13.782Z,4.10
2018-12-12T07:10:51.294Z,4.10
2018-12-12T07:13:28.846Z,3.83
2018-12-12T07:16:08.871Z,3.77
2018-12-12T07:18:46.279Z,3.53
2018-12-12T07:21:23.975Z,3.57
2018-12-12T07:24:01.700Z,3.23
2018-12-12T07:26:39.314Z,3.23
2018-12-12T07:29:16.576Z,3.97
2018-12-12T07:31:54.086Z,4.20
2018-12-12T07:34:31.719Z,3.73
2018-12-12T07:37:09.267Z,3.97
2018-12-12T07:39:46.761Z,3.60
2018-12-12T07:42:24.151Z,5.73
2018-12-12T07:45:08.121Z,3.03
2018-12-12T07:47:46.630Z,4.00
2018-12-12T07:50:30.239Z,4.63
2018-12-12T07:53:13.018Z,5.03
2018-12-12T07:55:50.431Z,8.53
2018-12-12T07:58:28.309Z,5.33
2018-12-12T08:01:05.744Z,9.40
2018-12-12T08:03:43.151Z,6.07
2018-12-12T08:06:21.648Z,5.53
2018-12-12T08:08:59.303Z,7.20
2018-12-12T08:11:36.714Z,6.20
2018-12-12T08:14:14.057Z,6.77
2018-12-12T08:16:51.339Z,4.70
2018-12-12T08:19:28.997Z,6.83
2018-12-12T08:22:08.946Z,3.43
2018-12-12T08:24:46.436Z,2.93
2018-12-12T08:27:24.494Z,4.03
2018-12-12T08:30:02.092Z,3.63
2018-12-12T08:32:40.767Z,5.10
2018-12-12T08:35:19.247Z,6.20
2018-12-12T08:37:56.966Z,8.13
2018-12-12T08:40:34.605Z,7.57
2018-12-12T08:43:12.119Z,7.70
2018-12-12T08:45:50.008Z,9.90
2018-12-12T08:48:27.576Z,9.73
2018-12-12T08:51:05.089Z,11.93
2018-12-12T08:53:42.529Z,13.03
2018-12-12T08:56:20.213Z,11.87
2018-12-12T08:58:57.729Z,9.23
2018-12-12T09:01:35.541Z,12.00
2018-12-12T09:04:13.275Z,10.37
2018-12-12T09:06:50.879Z,9.73
2018-12-12T09:09:28.459Z,10.50
2018-12-12T09:12:06.295Z,8.67
2018-12-12T09:14:43.926Z,7.37
2018-12-12T09:17:24.144Z,10.07
2018-12-12T09:20:01.492Z,7.83
2018-12-12T09:22:39.361Z,7.17
2018-12-12T09:25:16.973Z,7.13
2018-12-12T09:27:55.569Z,5.57
2018-12-12T09:30:34.871Z,5.23
2018-12-12T09:33:14.159Z,5.93
2018-12-12T09:36:05.561Z,6.23
2018-12-12T09:38:42.954Z,6.03
2018-12-12T09:41:20.974Z,5.03
2018-12-12T09:43:58.725Z,4.53
2018-12-12T09:46:36.085Z,5.80
2018-12-12T09:49:13.797Z,5.67
2018-12-12T09:51:53.572Z,4.87
2018-12-12T09:54:32.614Z,5.23
2018-12-12T09:57:11.771Z,6.00
2018-12-12T09:59:49.690Z,6.63
2018-12-12T10:02:27.198Z,8.00
2018-12-12T10:05:04.647Z,8.17
2018-12-12T10:07:36.824Z,7.17
2018-12-12T10:10:09.534Z,6.87
2018-12-12T10:12:42.426Z,6.90
2018-12-12T10:15:15.745Z,6.83
2018-12-12T10:17:47.810Z,6.00
2018-12-12T10:20:19.333Z,6.57
2018-12-12T10:22:51.717Z,6.90
2018-12-12T10:25:23.193Z,7.77
2018-12-12T10:27:55.768Z,7.00
2018-12-12T10:30:27.282Z,7.00
2018-12-12T10:33:00.722Z,7.50
2018-12-12T10:35:32.272Z,6.50
2018-12-12T10:38:04.516Z,6.83
2018-12-12T10:40:35.942Z,7.33
2018-12-12T10:43:07.941Z,7.00
2018-12-12T10:45:39.410Z,6.80
2018-12-12T10:48:12.753Z,7.17
2018-12-12T10:50:44.264Z,7.50
2018-12-12T10:53:17.106Z,8.63
2018-12-12T10:55:48.730Z,8.63
2018-12-12T10:58:20.824Z,10.00
2018-12-12T11:00:57.552Z,8.00
2018-12-12T11:03:37.281Z,8.20
2018-12-12T11:06:09.315Z,8.90
2018-12-12T11:08:57.059Z,8.10
2018-12-12T11:11:29.324Z,8.00
2018-12-12T11:14:06.318Z,8.40
2018-12-12T11:16:38.401Z,8.27
2018-12-12T11:19:10.541Z,8.00
2018-12-12T11:21:42.654Z,8.50
2018-12-12T11:24:15.292Z,7.43
2018-12-12T11:26:47.408Z,8.03
2018-12-12T11:29:19.590Z,8.03
2018-12-12T11:31:51.696Z,8.77
2018-12-12T11:34:23.330Z,7.97
2018-12-12T11:36:56.822Z,7.63
2018-12-12T11:39:29.842Z,7.10
2018-12-12T11:42:02.050Z,6.80
2018-12-12T11:44:34.283Z,7.20
2018-12-12T11:47:07.046Z,7.50
2018-12-12T11:49:39.046Z,7.00
2018-12-12T11:52:11.885Z,7.63
2018-12-12T11:54:44.071Z,7.80
2018-12-12T11:57:16.562Z,7.73
2018-12-12T11:59:48.785Z,9.13
2018-12-12T12:02:21.116Z,8.60
2018-12-12T12:04:59.060Z,8.77
2018-12-12T12:07:31.154Z,8.70
2018-12-12T12:10:03.872Z,8.90
2018-12-12T12:12:36.026Z,7.80
2018-12-12T12:15:08.962Z,8.13
2018-12-12T12:17:41.721Z,7.23
2018-12-12T12:20:13.401Z,9.03
2018-12-12T12:22:45.846Z,8.30
2018-12-12T12:25:17.268Z,8.43
2018-12-12T12:27:49.538Z,10.50
2018-12-12T12:30:20.921Z,9.67
2018-12-12T12:32:53.197Z,10.40
2018-12-12T12:35:25.789Z,9.90
2018-12-12T12:37:57.808Z,10.07
2018-12-12T12:40:29.304Z,12.23
2018-12-12T12:43:02.127Z,9.10
2018-12-12T12:45:34.510Z,9.60
2018-12-12T12:48:06.578Z,8.23
2018-12-12T12:50:38.133Z,8.60
2018-12-12T12:53:10.525Z,9.17
2018-12-12T12:55:42.524Z,8.97
2018-12-12T12:58:15.644Z,8.80
2018-12-12T13:00:47.056Z,9.73
2018-12-12T13:03:20.759Z,9.70
2018-12-12T13:05:52.212Z,10.20
2018-12-12T13:08:25.507Z,9.73
2018-12-12T13:10:56.800Z,9.47
2018-12-12T13:13:29.167Z,9.70
2018-12-12T13:16:01.376Z,10.40
2018-12-12T13:18:33.658Z,10.97
2018-12-12T13:21:06.359Z,12.00
2018-12-12T13:23:38.751Z,10.90
2018-12-12T13:26:10.241Z,11.87
2018-12-12T13:28:42.657Z,10.73
2018-12-12T13:31:14.453Z,11.03
2018-12-12T13:33:47.028Z,10.30
2018-12-12T13:36:19.133Z,10.83
2018-12-12T13:38:51.849Z,9.97
2018-12-12T13:41:24.451Z,9.90
2018-12-12T13:43:57.683Z,10.37
2018-12-12T13:46:30.069Z,9.13
2018-12-12T13:49:02.840Z,9.80
2018-12-12T13:51:35.131Z,9.43
2018-12-12T13:54:07.324Z,10.20
2018-12-12T13:56:40.006Z,10.03
2018-12-12T13:59:12.599Z,10.27
2018-12-12T14:01:44.965Z,11.80
2018-12-12T14:04:22.549Z,10.47
2018-12-12T14:06:53.609Z,11.70
2018-12-12T14:09:26.881Z,9.93
2018-12-12T14:11:59.835Z,13.07
2018-12-12T14:14:32.573Z,10.33
2018-12-12T14:17:04.694Z,10.80
2018-12-12T14:19:38.073Z,11.50
2018-12-12T14:22:10.183Z,13.00
2018-12-12T14:24:50.427Z,13.67
2018-12-12T14:27:24.835Z,14.57
2018-12-12T14:29:57.631Z,14.87
2018-12-12T14:32:30.965Z,17.50
2018-12-12T14:35:06.251Z,15.83
2018-12-12T14:37:41.972Z,14.23
2018-12-12T14:40:14.463Z,14.30
2018-12-12T14:42:46.629Z,12.17
2018-12-12T14:45:18.324Z,15.03
2018-12-12T14:47:52.805Z,12.60
2018-12-12T14:50:25.771Z,13.67
2018-12-12T14:52:57.427Z,12.47
2018-12-12T14:55:28.899Z,17.10
2018-12-12T14:58:01.093Z,14.77
2018-12-12T15:00:32.972Z,13.53
2018-12-12T15:03:10.093Z,14.17
2018-12-12T15:05:48.420Z,12.73
2018-12-12T15:08:25.237Z,15.37
2018-12-12T15:11:03.310Z,14.23
2018-12-12T15:13:40.375Z,14.70
2018-12-12T15:16:17.619Z,14.87
2018-12-12T15:18:56.297Z,15.23
2018-12-12T15:21:33.726Z,15.57
2018-12-12T15:24:11.141Z,14.47
2018-12-12T15:26:48.714Z,15.30
2018-12-12T15:29:26.725Z,17.17
2018-12-12T15:32:04.397Z,16.83
2018-12-12T15:34:42.438Z,18.10
2018-12-12T15:37:20.816Z,18.53
2018-12-12T15:39:58.209Z,16.77
2018-12-12T15:42:35.715Z,20.67
2018-12-12T15:45:13.103Z,20.13
2018-12-12T15:47:51.119Z,17.73
2018-12-12T15:50:28.791Z,16.77
2018-12-12T15:53:07.066Z,17.80
2018-12-12T15:55:44.804Z,18.37
2018-12-12T15:58:22.839Z,19.77
2018-12-12T16:01:02.763Z,21.13
2018-12-12T16:03:44.319Z,19.87
2018-12-12T16:06:22.359Z,21.40
2018-12-12T16:09:00.049Z,20.77
